Time;durP1;ratioP1;P1;durP2;ratioP2;P2;SDS_P1;SDS_P2;PMS_P1;PMS_P2;Temp;Humidity;BMP_temperature;BMP_pressure;BME280_temperature;BME280_humidity;BME280_pressure;Samples;Min_cycle;Max_cycle;Signal;HPM_P1;HPM_P2
2022/06/06 00:01:00;;;;;;;11.57;7.47;;;;;;;-147.53;100.00;57128.34;10398205;28;20049;-76
2022/06/06 00:06:10;;;;;;;17.50;7.85;;;;;;;-147.53;100.00;57128.34;10398258;28;20724;-75
2022/06/06 00:11:12;;;;;;;13.55;8.02;;;;;;;-147.53;100.00;57128.34;10395935;28;20132;-75
2022/06/06 00:16:14;;;;;;;11.88;7.95;;;;;;;-147.53;100.00;57128.34;10404304;28;20051;-75
2022/06/06 00:21:17;;;;;;;15.55;8.10;;;;;;;-147.53;100.00;57128.34;10396723;28;20048;-75
2022/06/06 00:26:19;;;;;;;11.07;7.70;;;;;;;-147.53;100.00;57128.34;10379766;28;20045;-76
2022/06/06 00:36:41;;;;;;;18.20;8.02;;;;;;;-147.53;100.00;57128.34;10397815;28;20049;-75
2022/06/06 00:41:49;;;;;;;11.55;6.55;;;;;;;-147.53;100.00;57128.34;10379335;28;20072;-74
2022/06/06 00:47:00;;;;;;;9.75;6.53;;;;;;;-147.53;100.00;57128.34;10395027;28;20164;-76
2022/06/06 00:52:02;;;;;;;8.15;5.38;;;;;;;-147.53;100.00;57128.34;10396865;28;20049;-75
2022/06/06 00:57:10;;;;;;;6.82;3.50;;;;;;;-147.53;100.00;57128.34;10396414;28;20694;-77
2022/06/06 01:02:13;;;;;;;2.40;1.70;;;;;;;-147.53;100.00;57128.34;10396691;28;20050;-75
2022/06/06 01:07:15;;;;;;;1.52;1.20;;;;;;;-147.53;100.00;57128.34;10378153;28;20505;-77
2022/06/06 01:12:20;;;;;;;1.30;1.00;;;;;;;-147.53;100.00;57128.34;10395475;28;20057;-75
2022/06/06 01:17:33;;;;;;;1.40;1.17;;;;;;;-147.53;100.00;57128.34;10389570;28;20087;-75
2022/06/06 01:23:13;;;;;;;2.22;1.10;;;;;;;-147.53;100.00;57128.34;10377846;28;20041;-74
2022/06/06 01:28:36;;;;;;;4.77;1.10;;;;;;;-147.53;100.00;57128.34;10392547;28;20044;-77
2022/06/06 01:33:54;;;;;;;1.40;1.20;;;;;;;-147.53;100.00;57128.34;10379059;28;20045;-76
2022/06/06 01:39:03;;;;;;;1.58;1.20;;;;;;;-147.53;100.00;57128.34;10398881;28;20047;-76
2022/06/06 01:44:10;;;;;;;1.80;1.00;;;;;;;-147.53;100.00;57128.34;10407620;28;20124;-75
2022/06/06 01:49:12;;;;;;;3.58;1.45;;;;;;;-147.53;100.00;57128.34;10402838;28;20055;-75
2022/06/06 01:54:17;;;;;;;1.50;1.20;;;;;;;-147.53;100.00;57128.34;10384627;28;20145;-75
2022/06/06 01:59:18;;;;;;;1.45;1.20;;;;;;;-147.53;100.00;57128.34;10404413;28;20106;-75
2022/06/06 02:04:20;;;;;;;2.47;1.45;;;;;;;-147.53;100.00;57128.34;10407883;28;20071;-75
2022/06/06 02:09:22;;;;;;;3.28;1.70;;;;;;;-147.53;100.00;57128.34;10403201;28;20283;-76
2022/06/06 02:14:23;;;;;;;2.45;1.52;;;;;;;-147.53;100.00;57128.34;10401452;28;20045;-74
2022/06/06 02:19:25;;;;;;;2.70;1.70;;;;;;;-147.53;100.00;57128.34;10402143;28;20405;-75
2022/06/06 02:24:26;;;;;;;3.50;2.17;;;;;;;-147.53;100.00;57128.34;10401258;28;20053;-76
2022/06/06 02:29:28;;;;;;;5.82;2.28;;;;;;;-147.53;100.00;57128.34;10408683;28;20785;-77
2022/06/06 02:34:29;;;;;;;4.95;2.40;;;;;;;-147.53;100.00;57128.34;10383613;28;20069;-76
2022/06/06 02:39:31;;;;;;;4.72;2.40;;;;;;;-147.53;100.00;57128.34;10401195;28;20045;-76
2022/06/06 02:44:33;;;;;;;3.88;2.50;;;;;;;-147.53;100.00;57128.34;10399479;28;20042;-75
2022/06/06 02:49:35;;;;;;;6.57;3.15;;;;;;;-147.53;100.00;57128.34;10400738;28;20470;-76
2022/06/06 02:54:36;;;;;;;6.05;3.30;;;;;;;-147.53;100.00;57128.34;10406561;28;20091;-75
2022/06/06 02:59:39;;;;;;;6.97;4.07;;;;;;;-147.53;100.00;57128.34;10399617;28;20037;-76
2022/06/06 03:04:40;;;;;;;9.40;5.30;;;;;;;-147.53;100.00;57128.34;10400774;28;20042;-75
2022/06/06 03:10:20;;;;;;;11.40;6.65;;;;;;;-147.53;100.00;57128.34;10399476;28;20531;-77
2022/06/06 03:15:41;;;;;;;12.63;7.33;;;;;;;-147.53;100.00;57128.34;10405244;28;20046;-76
2022/06/06 03:20:47;;;;;;;12.65;8.07;;;;;;;-147.53;100.00;57128.34;10395269;28;20037;-76
2022/06/06 03:26:12;;;;;;;13.65;7.90;;;;;;;-147.53;100.00;57128.34;10399844;28;20037;-76
2022/06/06 03:31:46;;;;;;;16.13;9.18;;;;;;;-147.53;100.00;57128.34;10375326;28;20045;-76
2022/06/06 03:37:07;;;;;;;17.98;11.35;;;;;;;-147.53;100.00;57128.34;10399557;28;20429;-76
2022/06/06 03:42:28;;;;;;;19.00;10.50;;;;;;;-147.53;100.00;57128.34;10398112;28;20057;-76
2022/06/06 03:48:03;;;;;;;24.10;13.10;;;;;;;-147.53;100.00;57128.34;10398238;28;20049;-75
2022/06/06 03:53:15;;;;;;;24.13;12.77;;;;;;;-147.53;100.00;57128.34;10396116;28;20041;-78
2022/06/06 03:58:17;;;;;;;23.13;13.43;;;;;;;-147.53;100.00;57128.34;10381046;28;20046;-77
2022/06/06 04:03:19;;;;;;;26.15;14.35;;;;;;;-147.53;100.00;57128.34;10397593;28;20152;-76
2022/06/06 04:08:21;;;;;;;28.90;16.55;;;;;;;-147.53;100.00;57128.34;10396734;28;20053;-77
2022/06/06 04:14:14;;;;;;;29.70;16.42;;;;;;;-147.53;100.00;57128.34;10396798;28;20760;-76
2022/06/06 04:19:41;;;;;;;27.85;15.68;;;;;;;-147.53;100.00;57128.34;10353182;28;20049;-75
2022/06/06 04:24:54;;;;;;;25.38;13.50;;;;;;;-147.53;100.00;57128.34;10391221;28;20041;-72
2022/06/06 04:29:59;;;;;;;24.90;13.07;;;;;;;-147.53;100.00;57128.34;10395212;28;20045;-75
2022/06/06 04:35:12;;;;;;;27.63;15.10;;;;;;;-147.53;100.00;57128.34;10396280;28;20052;-75
2022/06/06 04:40:23;;;;;;;27.92;14.65;;;;;;;-147.53;100.00;57128.34;10381291;28;20110;-76
2022/06/06 04:45:43;;;;;;;22.05;11.38;;;;;;;-147.53;100.00;57128.34;10396155;28;20148;-76
2022/06/06 04:50:46;;;;;;;17.52;8.50;;;;;;;-147.53;100.00;57128.34;10395488;28;20056;-77
2022/06/06 04:55:50;;;;;;;15.68;7.75;;;;;;;-147.53;100.00;57128.34;10396906;28;20487;-76
2022/06/06 05:00:52;;;;;;;18.40;7.90;;;;;;;-147.53;100.00;57128.34;10395610;28;20075;-75
2022/06/06 05:06:02;;;;;;;22.88;10.88;;;;;;;-147.53;100.00;57128.34;10396153;28;20084;-76
2022/06/06 05:11:37;;;;;;;23.98;11.10;;;;;;;-147.53;100.00;57128.34;10395102;28;20425;-75
2022/06/06 05:17:13;;;;;;;29.65;12.88;;;;;;;-147.53;100.00;57128.34;10400094;28;20124;-75
2022/06/06 05:22:31;;;;;;;28.27;12.50;;;;;;;-147.53;100.00;57128.34;10394065;28;20053;-75
2022/06/06 05:28:03;;;;;;;24.08;12.20;;;;;;;-147.53;100.00;57128.34;10403374;28;20045;-75
2022/06/06 05:33:14;;;;;;;25.00;11.45;;;;;;;-147.53;100.00;57128.34;10380369;28;20368;-75
2022/06/06 05:39:08;;;;;;;23.25;11.40;;;;;;;-147.53;100.00;57128.34;10385109;28;20059;-75
2022/06/06 05:44:45;;;;;;;27.63;12.68;;;;;;;-147.53;100.00;57128.34;10273908;28;20105;-75
2022/06/06 05:49:55;;;;;;;26.23;12.77;;;;;;;-147.53;100.00;57128.34;10384349;28;20133;-75
2022/06/06 05:55:25;;;;;;;26.70;12.85;;;;;;;-147.53;100.00;57128.34;10402787;28;20455;-75
2022/06/06 06:00:53;;;;;;;25.10;12.90;;;;;;;-147.53;100.00;57128.34;10402704;28;20083;-74
2022/06/06 06:06:17;;;;;;;23.33;11.57;;;;;;;-147.53;100.00;57128.34;10398797;28;20081;-74
2022/06/06 06:11:48;;;;;;;22.23;11.52;;;;;;;-147.53;100.00;57128.34;10402242;28;20041;-76
2022/06/06 06:16:55;;;;;;;21.15;12.20;;;;;;;-147.53;100.00;57128.34;10369314;28;20184;-74
2022/06/06 06:21:58;;;;;;;22.23;10.48;;;;;;;-147.53;100.00;57128.34;10405362;28;20073;-74
2022/06/06 06:27:02;;;;;;;20.13;11.43;;;;;;;-147.53;100.00;57128.34;10388691;28;20085;-75
2022/06/06 06:32:09;;;;;;;17.63;9.82;;;;;;;-147.53;100.00;57128.34;10407059;28;20041;-76
2022/06/06 06:37:30;;;;;;;17.55;8.65;;;;;;;-147.53;100.00;57128.34;10407855;28;20119;-75
2022/06/06 06:42:44;;;;;;;19.20;9.75;;;;;;;-147.53;100.00;57128.34;10405883;28;20045;-74
2022/06/06 06:47:51;;;;;;;15.55;8.88;;;;;;;-147.53;100.00;57128.34;10406393;28;20044;-75
2022/06/06 06:53:05;;;;;;;24.23;9.23;;;;;;;-147.53;100.00;57128.34;10402983;28;20072;-75
2022/06/06 06:58:30;;;;;;;15.73;8.38;;;;;;;-147.53;100.00;57128.34;10383064;28;20052;-75
2022/06/06 07:09:24;;;;;;;15.88;8.95;;;;;;;-147.53;100.00;57128.34;10382135;28;20057;-75
2022/06/06 07:15:03;;;;;;;15.20;7.97;;;;;;;-147.53;100.00;57128.34;10381627;28;20056;-75
2022/06/06 07:20:08;;;;;;;13.77;7.00;;;;;;;-147.53;100.00;57128.34;10396903;28;20178;-75
2022/06/06 07:25:11;;;;;;;13.73;6.40;;;;;;;-147.53;100.00;57128.34;10398562;28;20057;-75
2022/06/06 07:30:13;;;;;;;12.95;6.82;;;;;;;-147.53;100.00;57128.34;10397867;28;20045;-75
2022/06/06 07:35:29;;;;;;;12.82;6.22;;;;;;;-147.53;100.00;57128.34;10412527;28;20049;-74
2022/06/06 07:40:35;;;;;;;13.10;6.85;;;;;;;-147.53;100.00;57128.34;10406471;28;20049;-73
2022/06/06 07:45:47;;;;;;;12.73;6.70;;;;;;;-147.53;100.00;57128.34;10404244;28;20041;-74
2022/06/06 07:50:58;;;;;;;14.88;7.22;;;;;;;-147.53;100.00;57128.34;10391051;28;20041;-73
2022/06/06 07:56:19;;;;;;;14.25;7.43;;;;;;;-147.53;100.00;57128.34;10397725;28;20041;-73
2022/06/06 08:01:32;;;;;;;12.48;7.72;;;;;;;-147.53;100.00;57128.34;10403505;28;20152;-73
2022/06/06 08:06:49;;;;;;;14.95;7.75;;;;;;;-147.53;100.00;57128.34;10392951;28;20410;-73
2022/06/06 08:12:16;;;;;;;14.02;8.07;;;;;;;-147.53;100.00;57128.34;10405223;28;20052;-73
2022/06/06 08:17:44;;;;;;;21.08;9.35;;;;;;;-147.53;100.00;57128.34;10378159;28;20052;-74
2022/06/06 08:22:46;;;;;;;17.38;9.75;;;;;;;-147.53;100.00;57128.34;10404563;28;20079;-74
2022/06/06 08:27:51;;;;;;;18.85;9.63;;;;;;;-147.53;100.00;57128.34;10398855;28;20045;-73
2022/06/06 08:32:52;;;;;;;20.63;10.77;;;;;;;-147.53;100.00;57128.34;10397924;28;20055;-73
2022/06/06 08:38:00;;;;;;;21.63;11.57;;;;;;;-147.53;100.00;57128.34;10412226;28;20129;-73
2022/06/06 08:43:27;;;;;;;23.35;11.60;;;;;;;-147.53;100.00;57128.34;10399117;28;20057;-72
2022/06/06 08:48:41;;;;;;;21.60;12.30;;;;;;;-147.53;100.00;57128.34;10395724;28;20052;-73
2022/06/06 08:53:48;;;;;;;23.02;12.95;;;;;;;-147.53;100.00;57128.34;10398370;28;20046;-72
2022/06/06 08:58:56;;;;;;;19.80;11.00;;;;;;;-147.53;100.00;57128.34;10406303;28;20049;-74
2022/06/06 09:04:15;;;;;;;19.55;10.27;;;;;;;-147.53;100.00;57128.34;10406563;28;20124;-71
2022/06/06 09:10:16;;;;;;;16.90;8.57;;;;;;;-147.53;100.00;57128.34;10417134;28;20055;-69
2022/06/06 09:15:32;;;;;;;17.13;8.05;;;;;;;-147.53;100.00;57128.34;10339656;28;20080;-73
2022/06/06 09:20:47;;;;;;;16.90;7.10;;;;;;;-147.53;100.00;57128.34;10406255;28;20049;-70
2022/06/06 09:25:48;;;;;;;11.82;6.00;;;;;;;-147.53;100.00;57128.34;10412132;28;20128;-72
2022/06/06 09:31:28;;;;;;;10.18;4.50;;;;;;;-147.53;100.00;57128.34;10412476;28;20072;-74
2022/06/06 09:37:11;;;;;;;9.73;4.20;;;;;;;-147.53;100.00;57128.34;10401942;28;20068;-74
2022/06/06 09:42:34;;;;;;;9.45;4.10;;;;;;;-147.53;100.00;57128.34;10331295;28;20047;-75
2022/06/06 09:48:10;;;;;;;7.53;3.20;;;;;;;-147.53;100.00;57128.34;10398960;28;20135;-73
2022/06/06 09:53:35;;;;;;;10.95;3.72;;;;;;;-147.53;100.00;57128.34;10403323;28;20515;-73
2022/06/06 09:59:01;;;;;;;8.50;3.35;;;;;;;-147.53;100.00;57128.34;10395934;28;20497;-74
2022/06/06 10:04:03;;;;;;;6.47;3.15;;;;;;;-147.53;100.00;57128.34;10396791;28;20041;-79
2022/06/06 10:09:43;;;;;;;6.47;3.38;;;;;;;-147.53;100.00;57128.34;10396021;28;20037;-81
2022/06/06 10:15:03;;;;;;;8.10;3.90;;;;;;;-147.53;100.00;57128.34;10403102;28;20477;-76
2022/06/06 10:20:25;;;;;;;14.65;4.90;;;;;;;-147.53;100.00;57128.34;10391304;28;20327;-73
2022/06/06 10:25:45;;;;;;;7.65;4.07;;;;;;;-147.53;100.00;57128.34;10395969;28;20048;-72
2022/06/06 10:31:04;;;;;;;9.90;4.70;;;;;;;-147.53;100.00;57128.34;10399345;28;20071;-72
2022/06/06 10:36:23;;;;;;;10.45;4.80;;;;;;;-147.53;100.00;57128.34;10374607;28;20044;-72
2022/06/06 10:42:03;;;;;;;11.10;4.75;;;;;;;-147.53;100.00;57128.34;10398130;28;20112;-74
2022/06/06 10:47:59;;;;;;;13.73;4.20;;;;;;;-147.53;100.00;57128.34;10356032;28;20046;-73
2022/06/06 10:53:53;;;;;;;5.40;2.20;;;;;;;-147.53;100.00;57128.34;10382674;28;20148;-74
2022/06/06 10:59:03;;;;;;;5.07;2.03;;;;;;;-147.53;100.00;57128.34;10378961;28;20075;-72
2022/06/06 11:04:39;;;;;;;4.70;1.80;;;;;;;-147.53;100.00;57128.34;10398704;28;20076;-72
2022/06/06 11:10:17;;;;;;;6.20;2.60;;;;;;;-147.53;100.00;57128.34;10393297;28;20132;-73
2022/06/06 11:15:19;;;;;;;5.32;1.85;;;;;;;-147.53;100.00;57128.34;10400385;28;20091;-75
2022/06/06 11:20:42;;;;;;;4.85;1.75;;;;;;;-147.53;100.00;57128.34;10391849;28;20049;-75
2022/06/06 11:26:29;;;;;;;7.32;2.30;;;;;;;-147.53;100.00;57128.34;10398497;28;20052;-74
2022/06/06 11:32:08;;;;;;;6.80;2.40;;;;;;;-147.53;100.00;57128.34;10403230;28;20132;-74
2022/06/06 11:37:29;;;;;;;3.72;2.08;;;;;;;-147.53;100.00;57128.34;10397125;28;20053;-72
2022/06/06 11:43:12;;;;;;;4.15;1.80;;;;;;;-147.53;100.00;57128.34;10392799;28;20049;-77
2022/06/06 11:48:34;;;;;;;11.80;2.30;;;;;;;-147.53;100.00;57128.34;10392110;28;20045;-75
2022/06/06 11:54:22;;;;;;;3.95;1.48;;;;;;;-147.53;100.00;57128.34;10404217;28;20053;-75
2022/06/06 11:59:39;;;;;;;3.53;1.70;;;;;;;-147.53;100.00;57128.34;10393015;28;20111;-74
2022/06/06 12:04:47;;;;;;;3.40;1.70;;;;;;;-147.53;100.00;57128.34;10388950;28;20420;-75
2022/06/06 12:10:01;;;;;;;4.88;1.50;;;;;;;-147.53;100.00;57128.34;10395542;28;20207;-72
2022/06/06 12:15:17;;;;;;;6.97;1.63;;;;;;;-147.53;100.00;57128.34;10385306;28;20065;-76
2022/06/06 12:20:37;;;;;;;4.70;1.90;;;;;;;-147.53;100.00;57128.34;10380778;28;20160;-75
2022/06/06 12:26:02;;;;;;;264.23;15.68;;;;;;;-147.53;100.00;57128.34;10378719;28;20049;-75
2022/06/06 12:31:31;;;;;;;5.60;1.88;;;;;;;-147.53;100.00;57128.34;10395336;28;20046;-73
2022/06/06 12:36:44;;;;;;;2.83;1.60;;;;;;;-147.53;100.00;57128.34;10395799;28;20534;-76
2022/06/06 12:41:52;;;;;;;3.08;1.17;;;;;;;-147.53;100.00;57128.34;10393446;28;20065;-73
2022/06/06 12:47:31;;;;;;;1.38;1.02;;;;;;;-147.53;100.00;57128.34;10396003;28;20041;-75
2022/06/06 12:53:00;;;;;;;13.50;1.45;;;;;;;-147.53;100.00;57128.34;10388410;28;20135;-76
2022/06/06 12:58:23;;;;;;;1.30;0.80;;;;;;;-147.53;100.00;57128.34;10398145;28;20053;-76
2022/06/06 13:03:50;;;;;;;2.28;1.38;;;;;;;-147.53;100.00;57128.34;10397426;28;20064;-77
2022/06/06 13:09:02;;;;;;;47.08;3.60;;;;;;;-147.53;100.00;57128.34;10375586;28;20045;-75
2022/06/06 13:14:22;;;;;;;3.83;1.08;;;;;;;-147.53;100.00;57128.34;10397762;28;20056;-77
2022/06/06 13:19:36;;;;;;;3.55;1.10;;;;;;;-147.53;100.00;57128.34;10375405;28;20103;-79
2022/06/06 13:24:53;;;;;;;6.63;1.20;;;;;;;-147.53;100.00;57128.34;10399218;28;20041;-77
2022/06/06 13:29:55;;;;;;;5.72;0.88;;;;;;;-147.53;100.00;57128.34;10381711;28;20073;-76
2022/06/06 13:35:08;;;;;;;4.40;0.90;;;;;;;-147.53;100.00;57128.34;10396257;28;20487;-79
2022/06/06 13:40:15;;;;;;;1.80;0.93;;;;;;;-147.53;100.00;57128.34;10412215;28;20064;-77
2022/06/06 13:45:50;;;;;;;3.28;0.85;;;;;;;-147.53;100.00;57128.34;10407150;28;20064;-77
2022/06/06 13:51:25;;;;;;;3.05;0.80;;;;;;;-147.53;100.00;57128.34;10352022;28;20053;-77
2022/06/06 13:56:42;;;;;;;2.22;0.80;;;;;;;-147.53;100.00;57128.34;10403428;28;20132;-78
2022/06/06 14:02:08;;;;;;;2.40;0.95;;;;;;;-147.53;100.00;57128.34;10406156;28;20741;-79
2022/06/06 14:07:18;;;;;;;5.85;1.90;;;;;;;-147.53;100.00;57128.34;10405936;28;20043;-76
2022/06/06 14:12:51;;;;;;;1.70;0.80;;;;;;;-147.53;100.00;57128.34;10402342;28;20128;-76
2022/06/06 14:17:57;;;;;;;1.92;0.77;;;;;;;-147.53;100.00;57128.34;10399751;28;20069;-81
2022/06/06 14:23:23;;;;;;;2.17;0.80;;;;;;;-147.53;100.00;57128.34;10378294;28;20563;-76
2022/06/06 14:28:29;;;;;;;2.33;1.10;;;;;;;-147.53;100.00;57128.34;10395568;28;20124;-75
2022/06/06 14:33:35;;;;;;;2.72;0.90;;;;;;;-147.53;100.00;57128.34;10408404;28;20033;-75
2022/06/06 14:38:38;;;;;;;2.25;0.90;;;;;;;-147.53;100.00;57128.34;10412976;28;20148;-76
2022/06/06 14:43:52;;;;;;;4.47;0.77;;;;;;;-147.53;100.00;57128.34;10387887;28;20141;-74
2022/06/06 14:49:00;;;;;;;5.63;1.10;;;;;;;-147.53;100.00;57128.34;10432852;28;20048;-76
2022/06/06 14:54:06;;;;;;;3.58;1.30;;;;;;;-147.53;100.00;57128.34;10410686;28;20077;-76
2022/06/06 14:59:14;;;;;;;4.35;1.00;;;;;;;-147.53;100.00;57128.34;10396926;28;20037;-76
2022/06/06 15:04:19;;;;;;;4.57;0.80;;;;;;;-147.53;100.00;57128.34;10407089;28;20821;-78
2022/06/06 15:09:36;;;;;;;41.83;1.58;;;;;;;-147.53;100.00;57128.34;10389965;28;20071;-74
2022/06/06 15:14:37;;;;;;;0.90;0.50;;;;;;;-147.53;100.00;57128.34;10399700;28;20052;-74
2022/06/06 15:19:44;;;;;;;1.50;0.50;;;;;;;-147.53;100.00;57128.34;10401083;28;20516;-72
2022/06/06 15:24:46;;;;;;;39.53;1.40;;;;;;;-147.53;100.00;57128.34;10397274;28;20030;-74
2022/06/06 15:29:59;;;;;;;0.60;0.50;;;;;;;-147.53;100.00;57128.34;10397760;28;20068;-73
2022/06/06 15:35:31;;;;;;;0.80;0.63;;;;;;;-147.53;100.00;57128.34;10395476;28;20144;-73
2022/06/06 15:40:37;;;;;;;2.15;0.77;;;;;;;-147.53;100.00;57128.34;10396542;28;20051;-73
2022/06/06 15:45:54;;;;;;;1.80;0.80;;;;;;;-147.53;100.00;57128.34;10399563;28;20537;-74
2022/06/06 15:51:14;;;;;;;1.48;0.77;;;;;;;-147.53;100.00;57128.34;10399869;28;20052;-75
2022/06/06 15:56:22;;;;;;;2.15;0.68;;;;;;;-147.53;100.00;57128.34;10396786;28;20053;-73
2022/06/06 16:01:54;;;;;;;2.38;0.80;;;;;;;-147.53;100.00;57128.34;10396682;28;20128;-74
2022/06/06 16:07:20;;;;;;;1.83;0.70;;;;;;;-147.53;100.00;57128.34;10390825;28;20114;-73
2022/06/06 16:13:02;;;;;;;2.03;0.85;;;;;;;-147.53;100.00;57128.34;10398068;28;20053;-74
2022/06/06 16:18:28;;;;;;;2.22;0.90;;;;;;;-147.53;100.00;57128.34;10376460;28;20049;-74
2022/06/06 16:23:32;;;;;;;3.67;1.05;;;;;;;-147.53;100.00;57128.34;10393794;28;20041;-73
2022/06/06 16:28:46;;;;;;;2.25;0.90;;;;;;;-147.53;100.00;57128.34;10397040;28;20045;-74
2022/06/06 16:34:14;;;;;;;2.33;1.00;;;;;;;-147.53;100.00;57128.34;10395487;28;20141;-72
2022/06/06 16:39:23;;;;;;;2.70;0.93;;;;;;;-147.53;100.00;57128.34;10395582;28;20048;-73
2022/06/06 16:50:15;;;;;;;4.53;1.10;;;;;;;-147.53;100.00;57128.34;10394072;28;20060;-77
2022/06/06 16:55:59;;;;;;;2.88;1.20;;;;;;;-147.53;100.00;57128.34;10396052;28;20045;-76
2022/06/06 17:01:03;;;;;;;3.67;1.30;;;;;;;-147.53;100.00;57128.34;10399874;28;20108;-79
2022/06/06 17:11:49;;;;;;;5.35;1.75;;;;;;;-147.53;100.00;57128.34;10407285;28;20101;-80
2022/06/06 17:16:55;;;;;;;4.60;1.88;;;;;;;-147.53;100.00;57128.34;10405800;28;20509;-81
2022/06/06 17:22:02;;;;;;;3.13;1.67;;;;;;;-147.53;100.00;57128.34;10422387;28;20045;-83
2022/06/06 17:27:10;;;;;;;2.97;1.60;;;;;;;-147.53;100.00;57128.34;10402052;28;20052;-79
2022/06/06 17:32:16;;;;;;;9.27;1.95;;;;;;;-147.53;100.00;57128.34;10422679;28;20130;-77
2022/06/06 17:37:38;;;;;;;4.88;2.33;;;;;;;-147.53;100.00;57128.34;10398771;28;20475;-77
2022/06/06 17:42:50;;;;;;;3.83;2.20;;;;;;;-147.53;100.00;57128.34;10409808;28;20095;-79
2022/06/06 17:48:26;;;;;;;4.78;2.80;;;;;;;-147.53;100.00;57128.34;10409327;28;20037;-81
2022/06/06 17:54:14;;;;;;;6.75;2.60;;;;;;;-147.53;100.00;57128.34;10431014;28;20132;-78
2022/06/06 17:59:24;;;;;;;6.88;2.83;;;;;;;-147.53;100.00;57128.34;10401992;28;20044;-78
2022/06/06 18:04:32;;;;;;;7.22;3.40;;;;;;;-147.53;100.00;57128.34;10410812;28;20124;-79
2022/06/06 18:10:05;;;;;;;5.10;2.45;;;;;;;-147.53;100.00;57128.34;10394967;28;20105;-80
2022/06/06 18:15:50;;;;;;;5.63;2.33;;;;;;;-147.53;100.00;57128.34;10417207;28;20053;-81
2022/06/06 18:20:57;;;;;;;7.38;3.03;;;;;;;-147.53;100.00;57128.34;10382297;28;20045;-80
2022/06/06 18:26:04;;;;;;;7.38;2.65;;;;;;;-147.53;100.00;57128.34;10398399;28;20049;-80
2022/06/06 18:31:18;;;;;;;3.30;1.58;;;;;;;-147.53;100.00;57128.34;10403420;28;20439;-80
2022/06/06 18:36:21;;;;;;;3.08;1.33;;;;;;;-147.53;100.00;57128.34;10400589;28;20045;-81
2022/06/06 18:41:40;;;;;;;4.00;1.38;;;;;;;-147.53;100.00;57128.34;10402648;28;20174;-80
2022/06/06 18:46:42;;;;;;;1.88;1.10;;;;;;;-147.53;100.00;57128.34;10406942;28;20041;-81
2022/06/06 18:51:49;;;;;;;3.40;1.67;;;;;;;-147.53;100.00;57128.34;10407081;28;20061;-82
2022/06/06 18:56:55;;;;;;;4.20;1.57;;;;;;;-147.53;100.00;57128.34;10411307;28;20048;-82
2022/06/06 19:02:01;;;;;;;1.98;1.23;;;;;;;-147.53;100.00;57128.34;10414570;28;20075;-79
2022/06/06 19:07:25;;;;;;;2.38;1.27;;;;;;;-147.53;100.00;57128.34;10399684;28;20508;-81
2022/06/06 19:12:58;;;;;;;1.40;1.20;;;;;;;-147.53;100.00;57128.34;10384419;28;20148;-80
2022/06/06 19:18:25;;;;;;;3.47;1.27;;;;;;;-147.53;100.00;57128.34;10418428;28;20044;-79
2022/06/06 19:23:45;;;;;;;2.47;1.25;;;;;;;-147.53;100.00;57128.34;10419523;28;20045;-80
2022/06/06 19:29:07;;;;;;;;;;;;;;;-147.53;100.00;57128.34;10400635;28;20505;-83
2022/06/06 19:34:09;;;;;;;2.95;1.40;;;;;;;-147.53;100.00;57128.34;10421329;28;19963;-82
2022/06/06 19:39:32;;;;;;;1.80;1.40;;;;;;;-147.53;100.00;57128.34;10423550;28;20493;-80
2022/06/06 19:44:38;;;;;;;1.48;1.00;;;;;;;-147.53;100.00;57128.34;10399220;28;20056;-80
2022/06/06 19:49:45;;;;;;;2.90;1.40;;;;;;;-147.53;100.00;57128.34;10419993;28;20044;-81
2022/06/06 19:54:54;;;;;;;2.53;1.13;;;;;;;-147.53;100.00;57128.34;10417259;28;20041;-80
2022/06/06 20:00:05;;;;;;;2.15;1.23;;;;;;;-147.53;100.00;57128.34;10424097;28;20059;-78
2022/06/06 20:05:23;;;;;;;3.30;1.38;;;;;;;-147.53;100.00;57128.34;10379639;28;20045;-80
2022/06/06 20:10:31;;;;;;;3.92;1.70;;;;;;;-147.53;100.00;57128.34;10400260;28;20144;-81
2022/06/06 20:15:35;;;;;;;4.40;1.40;;;;;;;-147.53;100.00;57128.34;10430116;28;20065;-80
2022/06/06 20:20:45;;;;;;;3.58;1.67;;;;;;;-147.53;100.00;57128.34;10439465;28;20124;-80
2022/06/06 20:25:52;;;;;;;3.60;1.52;;;;;;;-147.53;100.00;57128.34;10437715;28;20080;-79
2022/06/06 20:36:35;;;;;;;4.40;1.40;;;;;;;-147.53;100.00;57128.34;10418502;28;20053;-82
2022/06/06 20:41:43;;;;;;;2.65;1.40;;;;;;;-147.53;100.00;57128.34;10401839;28;20053;-80
2022/06/06 20:46:52;;;;;;;3.13;1.70;;;;;;;-147.53;100.00;57128.34;10414053;28;20099;-81
2022/06/06 20:51:59;;;;;;;2.72;1.50;;;;;;;-147.53;100.00;57128.34;10410177;28;20912;-81
2022/06/06 20:57:24;;;;;;;6.00;1.67;;;;;;;-147.53;100.00;57128.34;10421830;28;20053;-81
2022/06/06 21:02:26;;;;;;;2.38;1.40;;;;;;;-147.53;100.00;57128.34;10447549;28;20102;-80
2022/06/06 21:07:30;;;;;;;3.25;1.58;;;;;;;-147.53;100.00;57128.34;10440773;28;20460;-80
2022/06/06 21:12:33;;;;;;;3.38;1.55;;;;;;;-147.53;100.00;57128.34;10417609;28;20064;-80
2022/06/06 21:17:34;;;;;;;3.28;1.85;;;;;;;-147.53;100.00;57128.34;10452340;28;20056;-79
2022/06/06 21:22:36;;;;;;;3.95;1.90;;;;;;;-147.53;100.00;57128.34;10441718;28;20046;-79
2022/06/06 21:27:38;;;;;;;4.43;1.98;;;;;;;-147.53;100.00;57128.34;10436152;28;20041;-79
2022/06/06 21:32:40;;;;;;;3.30;2.10;;;;;;;-147.53;100.00;57128.34;10424615;28;20053;-79
2022/06/06 21:37:42;;;;;;;5.03;2.70;;;;;;;-147.53;100.00;57128.34;10426291;28;20072;-79
2022/06/06 21:42:44;;;;;;;5.20;2.55;;;;;;;-147.53;100.00;57128.34;10449779;28;20052;-79
2022/06/06 21:47:46;;;;;;;6.47;3.35;;;;;;;-147.53;100.00;57128.34;10448572;28;20068;-81
2022/06/06 21:52:47;;;;;;;9.85;4.05;;;;;;;-147.53;100.00;57128.34;10448273;28;20132;-80
2022/06/06 21:57:50;;;;;;;7.38;4.05;;;;;;;-147.53;100.00;57128.34;10440515;28;20071;-80
2022/06/06 22:02:52;;;;;;;8.57;4.60;;;;;;;-147.53;100.00;57128.34;10441763;28;20517;-80
2022/06/06 22:07:53;;;;;;;8.93;5.15;;;;;;;-147.53;100.00;57128.34;10453578;28;20081;-80
2022/06/06 22:12:55;;;;;;;8.70;4.80;;;;;;;-147.53;100.00;57128.34;10420982;28;20052;-79
2022/06/06 22:17:57;;;;;;;11.00;5.53;;;;;;;-147.53;100.00;57128.34;10443293;28;20049;-80
2022/06/06 22:22:58;;;;;;;11.07;5.13;;;;;;;-147.53;100.00;57128.34;10415795;28;20051;-79
2022/06/06 22:28:00;;;;;;;9.32;4.80;;;;;;;-147.53;100.00;57128.34;10445135;28;20040;-80
2022/06/06 22:33:02;;;;;;;9.52;4.75;;;;;;;-147.53;100.00;57128.34;10450475;28;20050;-79
2022/06/06 22:38:04;;;;;;;9.05;4.38;;;;;;;-147.53;100.00;57128.34;10455524;28;20068;-79
2022/06/06 22:43:06;;;;;;;10.07;4.75;;;;;;;-147.53;100.00;57128.34;10418209;28;20056;-79
2022/06/06 22:48:23;;;;;;;9.23;4.28;;;;;;;-147.53;100.00;57128.34;10444315;28;20045;-79
2022/06/06 22:53:27;;;;;;;8.43;4.82;;;;;;;-147.53;100.00;57128.34;10441655;28;20119;-79
2022/06/06 22:58:29;;;;;;;8.65;4.13;;;;;;;-147.53;100.00;57128.34;10422618;28;20124;-78
2022/06/06 23:03:31;;;;;;;10.02;4.88;;;;;;;-147.53;100.00;57128.34;10434253;28;20141;-78
2022/06/06 23:08:33;;;;;;;11.77;4.75;;;;;;;-147.53;100.00;57128.34;10426475;28;20079;-78
2022/06/06 23:13:36;;;;;;;8.05;4.25;;;;;;;-147.53;100.00;57128.34;10416425;28;20041;-79
2022/06/06 23:18:39;;;;;;;9.20;4.82;;;;;;;-147.53;100.00;57128.34;10416722;28;20529;-77
2022/06/06 23:23:41;;;;;;;8.57;4.97;;;;;;;-147.53;100.00;57128.34;10395766;28;20053;-78
2022/06/06 23:28:43;;;;;;;9.35;4.70;;;;;;;-147.53;100.00;57128.34;10388642;28;20064;-79
2022/06/06 23:33:46;;;;;;;9.60;4.70;;;;;;;-147.53;100.00;57128.34;10389613;28;20132;-78
2022/06/06 23:38:58;;;;;;;11.32;4.95;;;;;;;-147.53;100.00;57128.34;10409407;28;20045;-78
2022/06/06 23:44:01;;;;;;;8.65;4.50;;;;;;;-147.53;100.00;57128.34;10420970;28;20100;-78
2022/06/06 23:49:11;;;;;;;10.63;5.10;;;;;;;-147.53;100.00;57128.34;10382796;28;20077;-78